createdAt,value
2023-04-09T00:00:37.140Z,65.21
2023-04-09T00:03:03.264Z,65.19
2023-04-09T00:05:29.411Z,65.08
2023-04-09T00:07:55.512Z,65.16
2023-04-09T00:10:21.605Z,65.16
2023-04-09T00:12:47.698Z,65.11
2023-04-09T00:15:24.111Z,65.15
2023-04-09T00:17:56.611Z,65.15
2023-04-09T00:20:22.735Z,65.22
2023-04-09T00:22:48.829Z,65.06
2023-04-09T00:25:14.974Z,65.19
2023-04-09T00:27:41.085Z,65.15
2023-04-09T00:30:07.179Z,65.03
2023-04-09T00:32:33.311Z,65.06
2023-04-09T00:34:59.411Z,65.17
2023-04-09T00:37:25.500Z,65.20
2023-04-09T00:39:52.014Z,65.24
2023-04-09T00:42:18.147Z,65.05
2023-04-09T00:44:44.249Z,65.09
2023-04-09T00:47:10.367Z,65.19
2023-04-09T00:49:36.475Z,65.06
2023-04-09T00:52:02.561Z,64.98
2023-04-09T00:54:28.668Z,65.07
2023-04-09T00:56:54.767Z,65.00
2023-04-09T00:59:20.858Z,65.20
2023-04-09T01:01:46.998Z,65.16
2023-04-09T01:04:13.116Z,65.14
2023-04-09T01:06:39.225Z,65.12
2023-04-09T01:09:05.335Z,65.11
2023-04-09T01:11:31.441Z,65.13
2023-04-09T01:13:57.577Z,65.08
2023-04-09T01:16:23.742Z,65.37
2023-04-09T01:18:50.202Z,64.97
2023-04-09T01:21:16.496Z,65.11
2023-04-09T01:23:42.663Z,65.21
2023-04-09T01:26:08.775Z,65.06
2023-04-09T01:28:34.885Z,64.99
2023-04-09T01:31:01.127Z,65.08
2023-04-09T01:33:27.263Z,65.21
2023-04-09T01:35:53.387Z,65.16
2023-04-09T01:38:19.558Z,65.09
2023-04-09T01:40:45.661Z,65.12
2023-04-09T01:43:11.746Z,64.93
2023-04-09T01:45:37.869Z,65.17
2023-04-09T01:48:03.982Z,65.15
2023-04-09T01:50:30.098Z,65.15
2023-04-09T01:52:56.366Z,64.93
2023-04-09T01:55:22.461Z,65.07
2023-04-09T01:57:48.573Z,65.01
2023-04-09T02:00:14.701Z,65.09
2023-04-09T02:02:40.921Z,65.05
2023-04-09T02:05:07.132Z,64.79
2023-04-09T02:07:33.237Z,65.05
2023-04-09T02:09:59.314Z,65.07
2023-04-09T02:12:25.401Z,64.84
2023-04-09T02:14:51.531Z,65.03
2023-04-09T02:17:17.639Z,65.01
2023-04-09T02:19:43.739Z,64.92
2023-04-09T02:22:09.858Z,65.05
2023-04-09T02:24:35.965Z,64.87
2023-04-09T02:27:02.058Z,64.87
2023-04-09T02:29:28.169Z,65.03
2023-04-09T02:31:54.244Z,65.02
2023-04-09T02:34:20.339Z,65.02
2023-04-09T02:36:46.455Z,65.02
2023-04-09T02:39:12.548Z,64.91
2023-04-09T02:41:38.630Z,64.96
2023-04-09T02:44:04.744Z,65.03
2023-04-09T02:46:30.931Z,64.86
2023-04-09T02:48:57.040Z,65.05
2023-04-09T02:51:23.208Z,64.84
2023-04-09T02:53:49.286Z,64.93
2023-04-09T02:56:15.378Z,64.87
2023-04-09T02:58:41.505Z,64.97
2023-04-09T03:01:07.585Z,64.75
2023-04-09T03:03:33.766Z,64.98
2023-04-09T03:06:00.009Z,64.96
2023-04-09T03:08:26.119Z,64.96
2023-04-09T03:10:52.212Z,64.89
2023-04-09T03:13:18.323Z,64.95
2023-04-09T03:15:44.419Z,64.84
2023-04-09T03:18:10.508Z,64.96
2023-04-09T03:20:36.634Z,64.83
2023-04-09T03:23:02.710Z,64.88
2023-04-09T03:25:28.810Z,64.94
2023-04-09T03:27:54.980Z,65.05
2023-04-09T03:30:21.078Z,64.88
2023-04-09T03:32:47.238Z,64.98
2023-04-09T03:35:13.373Z,64.95
2023-04-09T03:37:39.461Z,65.03
2023-04-09T03:40:05.551Z,65.00
2023-04-09T03:42:31.666Z,64.99
2023-04-09T03:44:57.762Z,64.78
2023-04-09T03:47:23.871Z,64.91
2023-04-09T03:49:49.993Z,64.83
2023-04-09T03:52:16.078Z,64.93
2023-04-09T03:54:42.243Z,64.83
2023-04-09T03:57:08.874Z,64.95
2023-04-09T03:59:34.967Z,64.95
2023-04-09T04:02:01.159Z,64.91
2023-04-09T04:04:27.472Z,64.66
2023-04-09T04:06:53.613Z,64.93
2023-04-09T04:09:19.702Z,64.96
2023-04-09T04:11:45.819Z,64.88
2023-04-09T04:14:11.913Z,64.85
2023-04-09T04:16:38.003Z,64.86
2023-04-09T04:19:04.134Z,64.82
2023-04-09T04:21:30.222Z,65.00
2023-04-09T04:23:56.332Z,64.91
2023-04-09T04:26:22.457Z,64.77
2023-04-09T04:28:48.560Z,64.94
2023-04-09T04:31:14.701Z,64.77
2023-04-09T04:33:40.874Z,64.83
2023-04-09T04:36:06.961Z,64.91
2023-04-09T04:38:33.058Z,64.88
2023-04-09T04:40:59.175Z,64.65
2023-04-09T04:43:25.264Z,64.80
2023-04-09T04:45:53.544Z,64.83
2023-04-09T04:48:19.853Z,64.92
2023-04-09T04:50:45.951Z,64.93
2023-04-09T04:53:12.038Z,64.80
2023-04-09T04:55:38.165Z,64.71
2023-04-09T04:58:04.264Z,64.78
2023-04-09T05:00:30.365Z,64.76
2023-04-09T05:02:57.190Z,64.86
2023-04-09T05:05:23.516Z,64.88
2023-04-09T05:07:49.806Z,64.94
2023-04-09T05:10:16.158Z,64.89
2023-04-09T05:12:42.400Z,64.86
2023-04-09T05:15:08.520Z,64.73
2023-04-09T05:17:34.654Z,64.78
2023-04-09T05:20:00.768Z,64.89
2023-04-09T05:22:26.864Z,64.88
2023-04-09T05:24:52.981Z,64.80
2023-04-09T05:27:19.062Z,64.70
2023-04-09T05:29:45.160Z,64.86
2023-04-09T05:32:11.281Z,64.79
2023-04-09T05:34:37.386Z,64.68
2023-04-09T05:37:03.477Z,64.87
2023-04-09T05:39:29.593Z,64.84
2023-04-09T05:41:55.706Z,64.59
2023-04-09T05:44:21.822Z,64.74
2023-04-09T05:46:47.957Z,64.83
2023-04-09T05:49:14.065Z,64.65
2023-04-09T05:51:40.146Z,64.72
2023-04-09T05:54:06.298Z,64.77
2023-04-09T05:56:32.413Z,64.83
2023-04-09T05:58:58.515Z,64.81
2023-04-09T06:01:24.647Z,64.72
2023-04-09T06:03:51.055Z,64.78
2023-04-09T06:06:17.509Z,64.77
2023-04-09T06:08:43.650Z,64.67
2023-04-09T06:11:09.805Z,64.73
2023-04-09T06:13:35.909Z,64.80
2023-04-09T06:16:02.062Z,64.80
2023-04-09T06:18:28.231Z,64.66
2023-04-09T06:20:54.374Z,64.85
2023-04-09T06:23:20.480Z,64.85
2023-04-09T06:25:46.588Z,64.74
2023-04-09T06:28:12.704Z,64.77
2023-04-09T06:30:38.810Z,64.82
2023-04-09T06:33:04.923Z,64.85
2023-04-09T06:35:31.092Z,64.69
2023-04-09T06:37:57.263Z,64.67
2023-04-09T06:40:23.533Z,64.67
2023-04-09T06:42:49.700Z,64.83
2023-04-09T06:45:15.829Z,64.64
2023-04-09T06:47:41.962Z,64.78
2023-04-09T06:50:08.111Z,64.77
2023-04-09T06:52:34.230Z,64.68
2023-04-09T06:55:00.357Z,64.61
2023-04-09T06:57:26.469Z,64.53
2023-04-09T06:59:52.638Z,64.65
2023-04-09T07:02:18.775Z,64.56
2023-04-09T07:04:44.998Z,64.76
2023-04-09T07:07:11.211Z,64.64
2023-04-09T07:09:37.312Z,64.68
2023-04-09T07:12:03.401Z,64.62
2023-04-09T07:14:29.547Z,64.79
2023-04-09T07:16:55.659Z,64.69
2023-04-09T07:19:21.791Z,64.76
2023-04-09T07:21:47.909Z,64.69
2023-04-09T07:24:14.021Z,64.58
2023-04-09T07:26:40.131Z,64.66
2023-04-09T07:29:06.233Z,64.74
2023-04-09T07:31:34.597Z,64.84
2023-04-09T07:34:01.951Z,64.62
2023-04-09T07:36:28.073Z,64.92
2023-04-09T07:38:54.638Z,64.61
2023-04-09T07:41:21.120Z,64.76
2023-04-09T07:43:47.298Z,64.65
2023-04-09T07:46:13.414Z,64.58
2023-04-09T07:48:39.543Z,64.72
2023-04-09T07:51:05.687Z,64.60
2023-04-09T07:53:31.809Z,64.71
2023-04-09T07:55:57.912Z,64.71
2023-04-09T07:58:24.035Z,64.74
2023-04-09T08:00:50.131Z,64.76
2023-04-09T08:03:16.501Z,64.66
2023-04-09T08:05:42.885Z,64.70
2023-04-09T08:08:08.977Z,64.56
2023-04-09T08:10:35.083Z,64.71
2023-04-09T08:13:01.211Z,64.57
2023-04-09T08:15:27.320Z,64.50
2023-04-09T08:17:53.476Z,64.64
2023-04-09T08:20:19.643Z,64.40
2023-04-09T08:22:45.740Z,64.55
2023-04-09T08:25:11.852Z,64.58
2023-04-09T08:27:37.966Z,64.59
2023-04-09T08:30:04.130Z,64.68
2023-04-09T08:32:30.372Z,64.64
2023-04-09T08:34:56.542Z,64.72
2023-04-09T08:37:22.654Z,64.51
2023-04-09T08:39:48.764Z,64.67
2023-04-09T08:42:14.898Z,64.55
2023-04-09T08:44:40.996Z,64.48
2023-04-09T08:47:07.125Z,64.68
2023-04-09T08:49:33.267Z,64.59
2023-04-09T08:51:59.375Z,64.69
2023-04-09T08:54:25.477Z,64.63
2023-04-09T08:56:51.600Z,64.69
2023-04-09T08:59:17.690Z,64.69
2023-04-09T09:01:43.869Z,64.60
2023-04-09T09:04:10.153Z,64.57
2023-04-09T09:06:36.292Z,64.50
2023-04-09T09:09:02.387Z,64.56
2023-04-09T09:11:28.496Z,64.40
2023-04-09T09:13:54.612Z,64.57
2023-04-09T09:16:20.768Z,64.48
2023-04-09T09:18:46.996Z,64.50
2023-04-09T09:21:13.175Z,64.61
2023-04-09T09:23:39.258Z,64.57
2023-04-09T09:26:05.375Z,64.47
2023-04-09T09:28:31.462Z,64.40
2023-04-09T09:30:57.655Z,64.46
2023-04-09T09:33:23.776Z,64.60
2023-04-09T09:35:50.004Z,64.39
2023-04-09T09:38:16.242Z,64.52
2023-04-09T09:40:42.396Z,64.48
2023-04-09T09:43:08.507Z,64.52
2023-04-09T09:45:34.601Z,64.47
2023-04-09T09:48:00.891Z,64.46
2023-04-09T09:50:27.002Z,64.44
2023-04-09T09:52:53.098Z,64.46
2023-04-09T09:55:19.206Z,64.46
2023-04-09T09:57:45.288Z,64.52
2023-04-09T10:00:11.385Z,64.52
2023-04-09T10:02:37.579Z,64.43
2023-04-09T10:05:03.731Z,64.67
2023-04-09T10:07:29.825Z,64.63
2023-04-09T10:09:56.422Z,64.51
2023-04-09T10:12:22.525Z,64.63
2023-04-09T10:14:48.663Z,64.61
2023-04-09T10:17:14.781Z,64.63
2023-04-09T10:19:40.871Z,64.64
2023-04-09T10:22:06.977Z,64.62
2023-04-09T10:24:33.129Z,64.50
2023-04-09T10:26:59.238Z,64.48
2023-04-09T10:29:26.114Z,64.57
2023-04-09T10:31:52.271Z,64.62
2023-04-09T10:34:18.407Z,64.69
2023-04-09T10:36:44.565Z,64.53
2023-04-09T10:39:10.909Z,64.40
2023-04-09T10:41:37.041Z,64.58
2023-04-09T10:44:03.185Z,64.56
2023-04-09T10:46:29.356Z,64.58
2023-04-09T10:48:55.497Z,64.61
2023-04-09T10:51:21.615Z,64.50
2023-04-09T10:53:47.778Z,64.57
2023-04-09T10:56:13.873Z,64.64
2023-04-09T10:58:40.011Z,64.46
2023-04-09T11:01:06.123Z,64.57
2023-04-09T11:03:32.257Z,64.57
2023-04-09T11:05:58.388Z,64.64
2023-04-09T11:08:24.531Z,64.44
2023-04-09T11:10:52.188Z,64.60
2023-04-09T11:13:18.585Z,64.63
2023-04-09T11:15:45.295Z,64.47
2023-04-09T11:18:11.426Z,64.49
2023-04-09T11:20:37.513Z,64.45
2023-04-09T11:23:03.649Z,64.52
2023-04-09T11:25:29.754Z,64.47
2023-04-09T11:27:55.846Z,64.47
2023-04-09T11:30:21.967Z,64.60
2023-04-09T11:32:48.226Z,64.64
2023-04-09T11:35:14.459Z,64.65
2023-04-09T11:37:40.567Z,64.60
2023-04-09T11:40:06.668Z,64.65
2023-04-09T11:42:32.801Z,64.49
2023-04-09T11:44:58.939Z,64.64
2023-04-09T11:47:25.089Z,64.58
2023-04-09T11:49:51.223Z,64.62
2023-04-09T11:52:17.363Z,64.67
2023-04-09T11:54:43.486Z,64.67
2023-04-09T11:57:09.603Z,64.65
2023-04-09T11:59:35.740Z,64.67
2023-04-09T12:02:01.953Z,64.66
2023-04-09T12:04:28.257Z,64.64
2023-04-09T12:06:54.418Z,64.67
2023-04-09T12:09:20.508Z,64.64
2023-04-09T12:11:46.615Z,64.54
2023-04-09T12:14:12.738Z,64.71
2023-04-09T12:16:38.871Z,64.58
2023-04-09T12:19:04.996Z,64.68
2023-04-09T12:21:31.127Z,64.82
2023-04-09T12:23:57.217Z,64.80
2023-04-09T12:26:23.316Z,64.64
2023-04-09T12:28:49.859Z,64.64
2023-04-09T12:31:16.016Z,64.69
2023-04-09T12:33:42.159Z,64.73
2023-04-09T12:36:08.311Z,64.79
2023-04-09T12:38:34.511Z,64.67
2023-04-09T12:41:00.648Z,64.59
2023-04-09T12:43:26.785Z,64.79
2023-04-09T12:45:52.919Z,64.59
2023-04-09T12:48:19.060Z,64.78
2023-04-09T12:50:45.162Z,64.64
2023-04-09T12:53:11.263Z,64.78
2023-04-09T12:55:37.367Z,64.75
2023-04-09T12:58:03.567Z,64.70
2023-04-09T13:00:29.665Z,64.78
2023-04-09T13:02:55.893Z,64.83
2023-04-09T13:05:22.091Z,64.80
2023-04-09T13:07:48.186Z,64.72
2023-04-09T13:10:14.309Z,64.77
2023-04-09T13:12:40.513Z,64.63
2023-04-09T13:15:06.633Z,64.85
2023-04-09T13:17:32.847Z,64.85
2023-04-09T13:19:59.509Z,64.81
2023-04-09T13:22:25.609Z,64.65
2023-04-09T13:24:51.718Z,64.83
2023-04-09T13:27:17.853Z,64.84
2023-04-09T13:29:43.943Z,64.65
2023-04-09T13:32:10.029Z,64.73
2023-04-09T13:34:36.298Z,64.81
2023-04-09T13:37:02.398Z,64.73
2023-04-09T13:39:28.495Z,64.79
2023-04-09T13:41:54.610Z,64.75
2023-04-09T13:44:20.705Z,64.87
2023-04-09T13:46:46.812Z,64.85
2023-04-09T13:49:12.937Z,64.84
2023-04-09T13:51:39.023Z,64.69
2023-04-09T13:54:06.041Z,64.77
2023-04-09T13:56:32.310Z,64.76
2023-04-09T13:58:58.453Z,64.67
2023-04-09T14:01:24.616Z,64.91
2023-04-09T14:03:51.566Z,64.84
2023-04-09T14:06:17.924Z,64.62
2023-04-09T14:08:44.026Z,64.82
2023-04-09T14:11:10.147Z,64.78
2023-04-09T14:13:36.239Z,64.82
2023-04-09T14:16:02.369Z,64.88
2023-04-09T14:18:28.521Z,65.03
2023-04-09T14:20:54.609Z,64.95
2023-04-09T14:23:20.708Z,64.82
2023-04-09T14:25:47.340Z,64.82
2023-04-09T14:28:13.429Z,64.86
2023-04-09T14:30:39.524Z,64.96
2023-04-09T14:33:05.681Z,64.76
2023-04-09T14:35:31.833Z,64.96
2023-04-09T14:37:57.983Z,64.91
2023-04-09T14:40:24.109Z,64.92
2023-04-09T14:42:50.217Z,64.80
2023-04-09T14:45:16.309Z,64.91
2023-04-09T14:47:42.434Z,64.86
2023-04-09T14:50:08.545Z,64.92
2023-04-09T14:52:34.655Z,64.91
2023-04-09T14:55:00.777Z,64.88
2023-04-09T14:57:26.883Z,65.00
2023-04-09T14:59:52.981Z,64.90
2023-04-09T15:02:19.194Z,64.97
2023-04-09T15:04:45.441Z,64.99
2023-04-09T15:07:11.587Z,64.81
2023-04-09T15:09:37.711Z,65.00
2023-04-09T15:12:03.834Z,64.94
2023-04-09T15:14:29.942Z,64.97
2023-04-09T15:16:56.074Z,64.81
2023-04-09T15:19:22.161Z,64.92
2023-04-09T15:21:48.262Z,65.02
2023-04-09T15:24:14.387Z,64.79
2023-04-09T15:26:40.522Z,64.98
2023-04-09T15:29:06.649Z,64.92
2023-04-09T15:31:32.809Z,64.92
2023-04-09T15:33:58.962Z,65.00
2023-04-09T15:36:25.060Z,64.98
2023-04-09T15:38:51.532Z,64.90
2023-04-09T15:41:17.773Z,64.86
2023-04-09T15:43:43.872Z,64.95
2023-04-09T15:46:10.059Z,65.02
2023-04-09T15:48:36.197Z,64.90
2023-04-09T15:51:02.305Z,64.98
2023-04-09T15:53:28.437Z,64.92
2023-04-09T15:55:54.541Z,64.94
2023-04-09T15:58:20.652Z,65.01
2023-04-09T16:00:46.827Z,65.02
2023-04-09T16:03:12.941Z,64.86
2023-04-09T16:05:39.034Z,64.92
2023-04-09T16:08:05.292Z,65.00
2023-04-09T16:10:31.395Z,64.86
2023-04-09T16:12:57.566Z,65.08
2023-04-09T16:15:23.696Z,64.91
2023-04-09T16:17:49.804Z,64.82
2023-04-09T16:20:15.935Z,64.99
2023-04-09T16:22:42.042Z,64.99
2023-04-09T16:25:08.134Z,64.97
2023-04-09T16:27:34.248Z,64.99
2023-04-09T16:30:00.415Z,64.91
2023-04-09T16:32:26.551Z,64.80
2023-04-09T16:34:52.687Z,65.02
2023-04-09T16:37:18.801Z,65.18
2023-04-09T16:39:44.905Z,65.01
2023-04-09T16:42:10.998Z,65.02
2023-04-09T16:44:37.241Z,65.00
2023-04-09T16:47:03.681Z,64.96
2023-04-09T16:49:29.967Z,64.96
2023-04-09T16:51:56.116Z,64.90
2023-04-09T16:54:22.215Z,64.86
2023-04-09T16:56:48.381Z,64.83
2023-04-09T16:59:14.500Z,64.95
2023-04-09T17:01:40.731Z,65.00
2023-04-09T17:04:06.966Z,64.86
2023-04-09T17:06:33.102Z,64.87
2023-04-09T17:08:59.456Z,64.94
2023-04-09T17:11:25.547Z,64.92
2023-04-09T17:13:52.192Z,64.92
2023-04-09T17:16:18.451Z,64.98
2023-04-09T17:18:44.641Z,64.91
2023-04-09T17:21:10.759Z,65.00
2023-04-09T17:23:36.835Z,65.12
2023-04-09T17:26:02.936Z,64.65
2023-04-09T17:28:29.061Z,64.91
2023-04-09T17:30:55.202Z,65.02
2023-04-09T17:33:21.297Z,65.05
2023-04-09T17:35:47.464Z,65.05
2023-04-09T17:38:13.574Z,65.01
2023-04-09T17:40:39.685Z,64.87
2023-04-09T17:43:05.803Z,65.03
2023-04-09T17:45:31.921Z,64.92
2023-04-09T17:47:58.012Z,64.89
2023-04-09T17:50:24.157Z,65.00
2023-04-09T17:52:50.251Z,64.92
2023-04-09T17:55:16.337Z,64.80
2023-04-09T17:57:42.447Z,64.93
2023-04-09T18:00:08.543Z,64.95
2023-04-09T18:02:34.970Z,65.06
2023-04-09T18:05:01.401Z,64.99
2023-04-09T18:07:27.585Z,65.00
2023-04-09T18:09:53.673Z,64.94
2023-04-09T18:12:19.776Z,65.03
2023-04-09T18:14:45.876Z,64.85
2023-04-09T18:17:12.510Z,64.99
2023-04-09T18:19:39.714Z,64.80
2023-04-09T18:22:05.818Z,65.06
2023-04-09T18:24:31.930Z,64.91
2023-04-09T18:26:58.117Z,65.05
2023-04-09T18:29:24.251Z,65.05
2023-04-09T18:31:50.404Z,64.96
2023-04-09T18:34:16.576Z,64.93
2023-04-09T18:36:42.687Z,64.95
2023-04-09T18:39:08.794Z,64.95
2023-04-09T18:41:34.906Z,64.96
2023-04-09T18:44:01.016Z,64.74
2023-04-09T18:46:27.180Z,64.86
2023-04-09T18:48:53.524Z,64.84
2023-04-09T18:51:20.865Z,65.03
2023-04-09T18:53:47.099Z,64.98
2023-04-09T18:56:13.242Z,64.87
2023-04-09T18:58:39.346Z,65.04
2023-04-09T19:01:05.436Z,65.01
2023-04-09T19:03:31.712Z,64.93
2023-04-09T19:05:57.902Z,65.03
2023-04-09T19:08:24.024Z,64.87
2023-04-09T19:10:50.141Z,64.82
2023-04-09T19:13:16.285Z,65.00
2023-04-09T19:15:42.491Z,64.93
2023-04-09T19:18:08.751Z,64.87
2023-04-09T19:20:34.887Z,65.02
2023-04-09T19:23:00.997Z,65.05
2023-04-09T19:25:27.124Z,64.94
2023-04-09T19:27:53.244Z,65.12
2023-04-09T19:30:19.342Z,65.11
2023-04-09T19:32:45.494Z,65.11
2023-04-09T19:35:11.636Z,64.97
2023-04-09T19:37:37.794Z,65.00
2023-04-09T19:40:03.983Z,64.94
2023-04-09T19:42:30.069Z,64.93
2023-04-09T19:44:56.197Z,65.05
2023-04-09T19:47:22.359Z,65.10
2023-04-09T19:49:48.480Z,65.13
2023-04-09T19:52:14.591Z,65.02
2023-04-09T19:54:40.757Z,65.21
2023-04-09T19:57:06.872Z,65.06
2023-04-09T19:59:32.983Z,65.00
2023-04-09T20:01:59.228Z,65.10
2023-04-09T20:04:25.399Z,65.13
2023-04-09T20:06:51.507Z,65.01
2023-04-09T20:09:17.759Z,64.98
2023-04-09T20:11:44.886Z,64.98
2023-04-09T20:14:10.969Z,65.00
2023-04-09T20:16:37.109Z,64.90
2023-04-09T20:19:03.234Z,65.07
2023-04-09T20:21:29.326Z,64.90
2023-04-09T20:23:55.499Z,65.06
2023-04-09T20:26:21.623Z,64.95
2023-04-09T20:28:47.702Z,64.96
2023-04-09T20:31:13.816Z,64.88
2023-04-09T20:33:39.946Z,64.98
2023-04-09T20:36:06.073Z,65.20
2023-04-09T20:38:32.252Z,65.03
2023-04-09T20:40:58.346Z,64.97
2023-04-09T20:43:24.433Z,64.97
2023-04-09T20:45:50.619Z,64.93
2023-04-09T20:48:16.783Z,64.97
2023-04-09T20:50:42.905Z,65.00
2023-04-09T20:53:09.017Z,64.99
2023-04-09T20:55:35.107Z,64.97
2023-04-09T20:58:01.210Z,64.97
2023-04-09T21:00:27.329Z,65.03
2023-04-09T21:02:53.664Z,64.89
2023-04-09T21:05:23.254Z,64.88
2023-04-09T21:07:50.188Z,64.91
2023-04-09T21:10:16.296Z,64.94
2023-04-09T21:12:42.411Z,64.98
2023-04-09T21:15:08.550Z,65.05
2023-04-09T21:17:34.815Z,64.92
2023-04-09T21:20:01.024Z,65.03
2023-04-09T21:22:27.164Z,64.90
2023-04-09T21:24:53.254Z,64.91
2023-04-09T21:27:19.342Z,64.95
2023-04-09T21:29:45.453Z,64.92
2023-04-09T21:32:11.557Z,64.92
2023-04-09T21:34:37.643Z,64.91
2023-04-09T21:37:03.741Z,64.98
2023-04-09T21:39:29.859Z,64.99
2023-04-09T21:41:56.004Z,64.94
2023-04-09T21:44:22.493Z,64.83
2023-04-09T21:46:48.585Z,65.02
2023-04-09T21:49:14.769Z,64.85
2023-04-09T21:51:40.887Z,64.90
2023-04-09T21:54:07.071Z,65.11
2023-04-09T21:56:33.181Z,64.84
2023-04-09T21:58:59.287Z,64.87
2023-04-09T22:01:29.552Z,64.83
2023-04-09T22:03:55.974Z,64.89
2023-04-09T22:06:22.148Z,64.97
2023-04-09T22:08:55.495Z,64.93
2023-04-09T22:11:23.180Z,64.88
2023-04-09T22:13:49.274Z,65.02
2023-04-09T22:16:15.388Z,64.94
2023-04-09T22:18:41.562Z,64.89
2023-04-09T22:21:07.660Z,64.97
2023-04-09T22:23:33.785Z,64.97
2023-04-09T22:25:59.895Z,64.86
2023-04-09T22:28:25.987Z,64.85
2023-04-09T22:30:52.089Z,64.85
2023-04-09T22:33:18.703Z,64.93
2023-04-09T22:35:44.882Z,64.81
2023-04-09T22:38:11.112Z,64.93
2023-04-09T22:40:37.245Z,64.98
2023-04-09T22:43:03.365Z,64.91
2023-04-09T22:45:29.455Z,65.10
2023-04-09T22:47:55.615Z,64.75
2023-04-09T22:50:21.754Z,64.88
2023-04-09T22:52:47.866Z,64.98
2023-04-09T22:55:13.982Z,64.82
2023-04-09T22:57:40.089Z,64.89
2023-04-09T23:00:06.190Z,64.89
2023-04-09T23:02:32.442Z,64.82
2023-04-09T23:05:00.857Z,64.91
2023-04-09T23:07:26.955Z,64.75
2023-04-09T23:09:53.051Z,64.93
2023-04-09T23:12:19.265Z,64.82
2023-04-09T23:14:46.198Z,64.99
2023-04-09T23:17:13.704Z,64.82
2023-04-09T23:19:39.826Z,64.81
2023-04-09T23:22:05.924Z,64.88
2023-04-09T23:24:32.050Z,64.80
2023-04-09T23:26:58.138Z,64.90
2023-04-09T23:29:24.258Z,64.86
2023-04-09T23:31:50.400Z,64.92
2023-04-09T23:34:16.519Z,64.98
2023-04-09T23:36:42.604Z,64.91
2023-04-09T23:39:08.706Z,64.56
2023-04-09T23:41:34.799Z,64.88
2023-04-09T23:44:00.889Z,64.92
2023-04-09T23:46:27.024Z,64.81
2023-04-09T23:48:53.144Z,64.86
2023-04-09T23:51:19.243Z,64.89
2023-04-09T23:53:45.350Z,64.96
2023-04-09T23:56:11.438Z,64.88
2023-04-09T23:58:37.521Z,64.80
